Time;durP1;ratioP1;P1;durP2;ratioP2;P2;SDS_P1;SDS_P2;PMS_P1;PMS_P2;Temp;Humidity;BMP_temperature;BMP_pressure;BME280_temperature;BME280_humidity;BME280_pressure;Samples;Min_cycle;Max_cycle;Signal;HPM_P1;HPM_P2
2023/01/06 00:00:14;;;;;;;7.50;1.50;;;;;;;;;;5036553;28;20037;-59
2023/01/06 00:02:39;;;;;;;5.40;1.40;;;;;;;;;;5021909;28;20060;-59
2023/01/06 00:05:05;;;;;;;5.90;1.37;;;;;;;;;;5029505;28;20116;-60
2023/01/06 00:07:30;;;;;;;8.25;1.50;;;;;;;;;;5031256;28;20030;-58
2023/01/06 00:09:55;;;;;;;4.85;1.20;;;;;;;;;;5036362;28;20829;-61
2023/01/06 00:12:20;;;;;;;5.40;1.60;;;;;;;;;;5033387;28;20028;-58
2023/01/06 00:14:46;;;;;;;7.07;1.73;;;;;;;;;;5040376;28;20018;-58
2023/01/06 00:17:11;;;;;;;6.88;1.98;;;;;;;;;;5037401;28;20098;-62
2023/01/06 00:19:36;;;;;;;6.22;2.08;;;;;;;;;;5023227;28;20057;-63
2023/01/06 00:22:01;;;;;;;6.20;2.00;;;;;;;;;;5037341;28;20404;-60
2023/01/06 00:24:27;;;;;;;7.37;1.97;;;;;;;;;;5038121;28;20064;-59
2023/01/06 00:26:52;;;;;;;5.43;1.80;;;;;;;;;;5030694;28;20021;-58
2023/01/06 00:29:17;;;;;;;6.55;1.63;;;;;;;;;;5034831;28;20080;-58
2023/01/06 00:31:43;;;;;;;7.35;2.33;;;;;;;;;;5038481;28;20050;-60
2023/01/06 00:34:09;;;;;;;4.77;1.83;;;;;;;;;;5034526;28;20048;-58
2023/01/06 00:36:34;;;;;;;8.23;2.00;;;;;;;;;;5024286;28;20091;-59
2023/01/06 00:38:59;;;;;;;5.77;1.97;;;;;;;;;;5032765;28;20047;-59
2023/01/06 00:44:09;;;;;;;6.20;2.08;;;;;;;;;;5042542;28;20040;-58
2023/01/06 00:46:34;;;;;;;9.53;2.23;;;;;;;;;;5036725;28;20048;-59
2023/01/06 00:49:00;;;;;;;6.33;1.90;;;;;;;;;;5028324;28;21491;-58
2023/01/06 00:51:26;;;;;;;6.28;1.90;;;;;;;;;;5026986;28;20450;-58
2023/01/06 00:53:51;;;;;;;5.63;1.92;;;;;;;;;;5039621;28;20100;-61
2023/01/06 00:56:16;;;;;;;8.45;1.92;;;;;;;;;;5036436;28;20041;-58
2023/01/06 00:58:41;;;;;;;6.40;2.13;;;;;;;;;;5023731;28;20090;-58
2023/01/06 01:01:07;;;;;;;5.72;2.20;;;;;;;;;;5017008;28;20407;-58
2023/01/06 01:03:33;;;;;;;6.35;2.00;;;;;;;;;;5021270;28;20313;-60
2023/01/06 01:06:02;;;;;;;7.28;2.10;;;;;;;;;;5024914;28;20025;-59
2023/01/06 01:08:27;;;;;;;8.38;2.53;;;;;;;;;;5015034;28;20164;-59
2023/01/06 01:10:53;;;;;;;8.30;2.78;;;;;;;;;;5033303;28;20120;-59
2023/01/06 01:13:18;;;;;;;9.43;2.78;;;;;;;;;;5028295;28;20029;-58
2023/01/06 01:15:43;;;;;;;8.07;2.30;;;;;;;;;;5025969;28;20018;-58
2023/01/06 01:18:09;;;;;;;8.40;2.17;;;;;;;;;;5029349;28;20024;-59
2023/01/06 01:20:34;;;;;;;7.95;2.25;;;;;;;;;;5032244;28;20208;-59
2023/01/06 01:22:59;;;;;;;6.87;2.43;;;;;;;;;;5029740;28;20175;-58
2023/01/06 01:25:24;;;;;;;8.32;2.60;;;;;;;;;;5026845;28;20044;-59
2023/01/06 01:27:49;;;;;;;8.13;2.63;;;;;;;;;;5035849;28;20116;-60
2023/01/06 01:30:14;;;;;;;7.78;2.40;;;;;;;;;;5027651;28;20029;-62
2023/01/06 01:32:39;;;;;;;10.20;2.50;;;;;;;;;;5022118;28;20128;-60
2023/01/06 01:35:05;;;;;;;7.57;2.63;;;;;;;;;;5027439;28;20382;-63
2023/01/06 01:37:30;;;;;;;8.73;2.50;;;;;;;;;;5025598;28;20029;-59
2023/01/06 01:39:55;;;;;;;5.93;2.30;;;;;;;;;;5030859;28;20018;-59
2023/01/06 01:42:20;;;;;;;7.90;2.80;;;;;;;;;;5030468;28;20390;-60
2023/01/06 01:45:14;;;;;;;7.17;2.23;;;;;;;;;;5041017;28;20482;-59
2023/01/06 01:47:42;;;;;;;10.07;2.55;;;;;;;;;;5024899;28;20029;-60
2023/01/06 01:50:16;;;;;;;6.40;2.30;;;;;;;;;;5028877;28;20423;-60
2023/01/06 01:52:42;;;;;;;7.75;2.50;;;;;;;;;;5031894;28;20033;-59
2023/01/06 01:55:08;;;;;;;10.07;2.13;;;;;;;;;;5029061;28;20013;-59
2023/01/06 01:57:35;;;;;;;10.48;2.75;;;;;;;;;;5029371;28;20339;-60
2023/01/06 02:00:02;;;;;;;6.53;2.50;;;;;;;;;;5036906;28;20022;-60
2023/01/06 02:02:29;;;;;;;6.55;2.38;;;;;;;;;;5023102;28;20068;-59
2023/01/06 02:04:54;;;;;;;;;;;;;;;;;;5026416;28;20025;-61
2023/01/06 02:07:20;;;;;;;8.13;2.67;;;;;;;;;;5034342;28;19963;-59
2023/01/06 02:09:56;;;;;;;6.78;2.40;;;;;;;;;;5029520;28;20072;-59
2023/01/06 02:12:21;;;;;;;7.93;2.05;;;;;;;;;;5023849;28;20403;-59
2023/01/06 02:14:46;;;;;;;6.78;2.42;;;;;;;;;;5023942;28;20018;-61
2023/01/06 02:17:18;;;;;;;7.45;2.50;;;;;;;;;;5034148;28;20706;-60
2023/01/06 02:19:49;;;;;;;10.27;2.40;;;;;;;;;;5029671;28;20082;-61
2023/01/06 02:22:32;;;;;;;7.28;2.50;;;;;;;;;;5034319;28;20056;-58
2023/01/06 02:24:57;;;;;;;6.13;2.28;;;;;;;;;;5016066;28;20439;-61
2023/01/06 02:27:28;;;;;;;5.78;2.25;;;;;;;;;;5026202;28;20544;-60
2023/01/06 02:30:12;;;;;;;6.63;2.50;;;;;;;;;;5038477;28;20461;-59
2023/01/06 02:32:44;;;;;;;9.00;2.70;;;;;;;;;;5020060;28;20478;-59
2023/01/06 02:35:34;;;;;;;7.15;2.28;;;;;;;;;;5032382;28;20425;-59
2023/01/06 02:37:59;;;;;;;;;;;;;;;;;;5040430;28;20108;-58
2023/01/06 02:40:34;;;;;;;6.90;2.28;;;;;;;;;;5032927;28;20215;-64
2023/01/06 02:43:19;;;;;;;6.28;2.10;;;;;;;;;;5025990;28;20116;-60
2023/01/06 02:45:54;;;;;;;8.95;2.30;;;;;;;;;;5025200;28;20482;-59
2023/01/06 02:48:23;;;;;;;6.45;2.35;;;;;;;;;;5023832;28;20022;-58
2023/01/06 02:50:51;;;;;;;7.28;2.70;;;;;;;;;;5029980;28;20109;-59
2023/01/06 02:53:22;;;;;;;7.65;2.40;;;;;;;;;;5039800;28;20021;-59
2023/01/06 02:55:49;;;;;;;7.40;2.80;;;;;;;;;;5031460;28;20021;-59
2023/01/06 02:58:30;;;;;;;8.10;2.90;;;;;;;;;;5029291;28;20026;-60
2023/01/06 03:03:30;;;;;;;6.70;2.40;;;;;;;;;;5022126;28;20053;-57
2023/01/06 03:06:01;;;;;;;6.65;2.58;;;;;;;;;;5022999;28;20022;-57
2023/01/06 03:08:27;;;;;;;7.45;2.85;;;;;;;;;;5030227;28;20045;-56
2023/01/06 03:10:54;;;;;;;7.65;2.85;;;;;;;;;;5030163;28;20060;-57
2023/01/06 03:13:34;;;;;;;8.23;2.75;;;;;;;;;;5024647;28;20044;-56
2023/01/06 03:15:59;;;;;;;7.38;2.90;;;;;;;;;;5029973;28;20548;-56
2023/01/06 03:18:25;;;;;;;11.53;2.80;;;;;;;;;;5027594;28;20037;-55
2023/01/06 03:20:52;;;;;;;6.55;2.70;;;;;;;;;;5027912;28;20057;-55
2023/01/06 03:23:17;;;;;;;8.80;2.58;;;;;;;;;;5029598;28;20033;-56
2023/01/06 03:25:43;;;;;;;9.65;2.95;;;;;;;;;;5031195;28;20076;-57
2023/01/06 03:28:08;;;;;;;6.90;2.47;;;;;;;;;;5027416;28;20032;-56
2023/01/06 03:30:46;;;;;;;8.45;2.58;;;;;;;;;;5029815;28;20336;-58
2023/01/06 03:33:24;;;;;;;12.35;2.85;;;;;;;;;;5028685;28;20092;-56
2023/01/06 03:35:55;;;;;;;9.45;3.38;;;;;;;;;;5026575;28;20036;-58
2023/01/06 03:38:35;;;;;;;8.15;2.63;;;;;;;;;;5028214;28;20025;-56
2023/01/06 03:41:09;;;;;;;8.55;2.58;;;;;;;;;;5028005;28;20045;-56
2023/01/06 03:43:40;;;;;;;7.85;2.50;;;;;;;;;;5026848;28;20046;-56
2023/01/06 03:46:05;;;;;;;5.25;2.17;;;;;;;;;;5028324;28;20021;-61
2023/01/06 03:48:45;;;;;;;9.75;3.05;;;;;;;;;;5029474;28;20063;-57
2023/01/06 03:51:13;;;;;;;7.63;2.00;;;;;;;;;;5026624;28;20104;-57
2023/01/06 03:53:44;;;;;;;8.02;2.25;;;;;;;;;;5029341;28;20470;-61
2023/01/06 03:56:10;;;;;;;7.13;2.00;;;;;;;;;;5028220;28;20104;-54
2023/01/06 03:58:36;;;;;;;7.93;2.22;;;;;;;;;;5030662;28;20041;-54
2023/01/06 04:01:02;;;;;;;7.43;3.10;;;;;;;;;;5025868;28;20390;-59
2023/01/06 04:03:27;;;;;;;5.97;2.15;;;;;;;;;;5023607;28;20029;-55
2023/01/06 04:05:53;;;;;;;5.82;2.10;;;;;;;;;;5027173;28;20538;-56
2023/01/06 04:08:18;;;;;;;7.35;1.80;;;;;;;;;;5030438;28;20033;-57
2023/01/06 04:10:44;;;;;;;5.10;1.97;;;;;;;;;;5026405;28;20030;-58
2023/01/06 04:13:09;;;;;;;6.60;2.13;;;;;;;;;;5027392;28;20028;-56
2023/01/06 04:15:34;;;;;;;6.80;1.88;;;;;;;;;;5027087;28;20021;-55
2023/01/06 04:17:59;;;;;;;7.43;1.60;;;;;;;;;;5030294;28;20514;-56
2023/01/06 04:20:27;;;;;;;8.82;1.90;;;;;;;;;;5027929;28;20026;-57
2023/01/06 04:22:53;;;;;;;7.93;2.00;;;;;;;;;;5028853;28;20041;-55
2023/01/06 04:25:18;;;;;;;6.93;2.03;;;;;;;;;;5027404;28;20470;-56
2023/01/06 04:27:43;;;;;;;4.20;1.50;;;;;;;;;;5018417;28;20101;-57
2023/01/06 04:30:09;;;;;;;6.47;1.83;;;;;;;;;;5025386;28;20044;-54
2023/01/06 04:32:34;;;;;;;6.03;2.08;;;;;;;;;;5029424;28;20021;-57
2023/01/06 04:34:59;;;;;;;5.60;1.60;;;;;;;;;;5025621;28;20048;-55
2023/01/06 04:37:24;;;;;;;9.97;1.80;;;;;;;;;;5029653;28;20034;-58
2023/01/06 04:39:49;;;;;;;8.02;1.88;;;;;;;;;;5030067;28;20026;-54
2023/01/06 04:42:14;;;;;;;5.75;1.52;;;;;;;;;;5025992;28;20184;-58
2023/01/06 04:44:41;;;;;;;6.93;2.05;;;;;;;;;;5026685;28;20470;-55
2023/01/06 04:47:06;;;;;;;7.78;1.95;;;;;;;;;;5027165;28;20108;-54
2023/01/06 04:49:31;;;;;;;6.53;1.70;;;;;;;;;;5021334;28;20096;-56
2023/01/06 04:51:56;;;;;;;8.03;2.00;;;;;;;;;;5029435;28;20068;-54
2023/01/06 04:54:22;;;;;;;6.88;1.90;;;;;;;;;;5015892;28;20495;-63
2023/01/06 04:56:47;;;;;;;7.05;2.08;;;;;;;;;;5018145;28;20056;-55
2023/01/06 04:59:12;;;;;;;8.77;2.10;;;;;;;;;;5018893;28;20038;-61
2023/01/06 05:01:37;;;;;;;5.93;2.22;;;;;;;;;;5027788;28;20034;-55
2023/01/06 05:04:04;;;;;;;7.00;2.17;;;;;;;;;;5029432;28;20093;-59
2023/01/06 05:06:30;;;;;;;6.10;1.98;;;;;;;;;;5028939;28;20121;-54
2023/01/06 05:08:55;;;;;;;6.18;2.20;;;;;;;;;;5019228;28;20100;-57
2023/01/06 05:11:21;;;;;;;6.77;2.13;;;;;;;;;;5027604;28;20034;-54
2023/01/06 05:13:47;;;;;;;7.07;1.83;;;;;;;;;;5025572;28;20018;-56
2023/01/06 05:16:17;;;;;;;6.80;2.25;;;;;;;;;;5027385;28;20025;-54
2023/01/06 05:18:43;;;;;;;7.13;2.10;;;;;;;;;;5023163;28;20017;-56
2023/01/06 05:21:08;;;;;;;8.45;2.50;;;;;;;;;;5026068;28;20494;-56
2023/01/06 05:23:33;;;;;;;8.38;2.17;;;;;;;;;;5027287;28;20013;-55
2023/01/06 05:25:58;;;;;;;9.45;2.60;;;;;;;;;;5022562;28;20026;-59
2023/01/06 05:28:24;;;;;;;9.23;2.30;;;;;;;;;;5024308;28;20026;-63
2023/01/06 05:30:49;;;;;;;7.20;1.97;;;;;;;;;;5021648;28;20025;-59
2023/01/06 05:33:14;;;;;;;12.53;2.50;;;;;;;;;;5023259;28;20034;-55
2023/01/06 05:35:39;;;;;;;7.43;2.30;;;;;;;;;;5015899;28;20053;-56
2023/01/06 05:38:05;;;;;;;9.73;2.27;;;;;;;;;;5022346;28;20025;-56
2023/01/06 05:40:30;;;;;;;6.88;2.08;;;;;;;;;;5014684;28;20032;-56
2023/01/06 05:42:55;;;;;;;7.72;2.28;;;;;;;;;;5025306;28;20061;-56
2023/01/06 05:45:21;;;;;;;7.03;2.30;;;;;;;;;;5024608;28;20149;-56
2023/01/06 05:47:46;;;;;;;8.90;2.53;;;;;;;;;;5017605;28;20826;-57
2023/01/06 05:50:11;;;;;;;8.33;2.37;;;;;;;;;;5021839;28;20117;-57
2023/01/06 05:52:37;;;;;;;7.82;2.50;;;;;;;;;;5022624;28;20025;-57
2023/01/06 05:55:02;;;;;;;8.05;2.50;;;;;;;;;;5029067;28;20034;-56
2023/01/06 05:57:27;;;;;;;8.80;2.60;;;;;;;;;;5029549;28;20018;-55
2023/01/06 05:59:52;;;;;;;9.95;3.17;;;;;;;;;;5024134;28;20810;-54
2023/01/06 06:02:17;;;;;;;7.10;2.27;;;;;;;;;;5023332;28;20484;-56
2023/01/06 06:04:42;;;;;;;7.13;2.30;;;;;;;;;;5025184;28;20112;-55
2023/01/06 06:07:08;;;;;;;9.80;2.65;;;;;;;;;;5028152;28;20520;-57
2023/01/06 06:09:33;;;;;;;7.17;2.20;;;;;;;;;;5025431;28;20079;-56
2023/01/06 06:11:58;;;;;;;10.93;2.73;;;;;;;;;;5027880;28;20022;-58
2023/01/06 06:14:25;;;;;;;9.63;2.85;;;;;;;;;;5028097;28;20093;-58
2023/01/06 06:16:50;;;;;;;11.77;3.00;;;;;;;;;;5028499;28;20060;-54
2023/01/06 06:19:15;;;;;;;11.30;3.33;;;;;;;;;;5019346;28;20420;-55
2023/01/06 06:21:40;;;;;;;7.60;2.97;;;;;;;;;;5026673;28;21051;-55
2023/01/06 06:24:05;;;;;;;8.80;3.57;;;;;;;;;;5028378;28;20104;-55
2023/01/06 06:26:31;;;;;;;10.73;3.30;;;;;;;;;;5028496;28;20450;-55
2023/01/06 06:28:56;;;;;;;8.67;3.10;;;;;;;;;;5031430;28;20370;-54
2023/01/06 06:31:22;;;;;;;10.85;2.97;;;;;;;;;;5043158;28;20033;-59
2023/01/06 06:33:51;;;;;;;11.48;2.88;;;;;;;;;;5032863;28;20026;-54
2023/01/06 06:36:16;;;;;;;8.45;2.92;;;;;;;;;;5032699;28;20108;-56
2023/01/06 06:38:43;;;;;;;6.90;2.70;;;;;;;;;;5032721;28;20095;-55
2023/01/06 06:41:08;;;;;;;9.45;3.05;;;;;;;;;;5032538;28;20809;-54
2023/01/06 06:43:33;;;;;;;12.43;2.97;;;;;;;;;;5034911;28;20109;-56
2023/01/06 06:45:58;;;;;;;10.97;3.10;;;;;;;;;;5036419;28;20022;-55
2023/01/06 06:48:23;;;;;;;9.48;3.25;;;;;;;;;;5032892;28;20021;-56
2023/01/06 06:50:59;;;;;;;13.48;3.03;;;;;;;;;;5032671;28;20021;-55
2023/01/06 06:53:24;;;;;;;11.52;3.10;;;;;;;;;;5032657;28;20037;-56
2023/01/06 06:55:49;;;;;;;9.35;3.38;;;;;;;;;;5029554;28;20025;-54
2023/01/06 06:58:14;;;;;;;10.98;3.55;;;;;;;;;;5027545;28;20032;-56
2023/01/06 07:00:39;;;;;;;10.43;3.28;;;;;;;;;;5027958;28;20029;-54
2023/01/06 07:03:04;;;;;;;9.50;3.38;;;;;;;;;;5031948;28;20114;-55
2023/01/06 07:05:30;;;;;;;9.90;3.67;;;;;;;;;;5023694;28;20045;-55
2023/01/06 07:07:55;;;;;;;10.10;3.80;;;;;;;;;;5028896;28;20074;-57
2023/01/06 07:10:20;;;;;;;11.20;3.67;;;;;;;;;;5023632;28;20029;-55
2023/01/06 07:12:45;;;;;;;12.87;3.30;;;;;;;;;;5026809;28;20063;-56
2023/01/06 07:15:10;;;;;;;12.55;4.60;;;;;;;;;;5028493;28;20471;-55
2023/01/06 07:17:35;;;;;;;10.50;3.78;;;;;;;;;;5026798;28;20083;-56
2023/01/06 07:20:00;;;;;;;10.30;3.80;;;;;;;;;;5029466;28;20144;-59
2023/01/06 07:22:26;;;;;;;12.82;3.83;;;;;;;;;;5029312;28;20389;-57
2023/01/06 07:24:51;;;;;;;13.80;4.00;;;;;;;;;;5027337;28;20021;-54
2023/01/06 07:27:16;;;;;;;16.55;4.47;;;;;;;;;;5031322;28;20026;-56
2023/01/06 07:29:41;;;;;;;11.88;4.45;;;;;;;;;;5031595;28;20068;-59
2023/01/06 07:32:06;;;;;;;13.23;4.10;;;;;;;;;;5027955;28;20090;-57
2023/01/06 07:34:32;;;;;;;16.83;4.30;;;;;;;;;;5030424;28;20029;-62
2023/01/06 07:36:57;;;;;;;11.77;4.10;;;;;;;;;;5022641;28;20037;-56
2023/01/06 07:39:22;;;;;;;13.97;4.50;;;;;;;;;;5031874;28;20039;-55
2023/01/06 07:41:47;;;;;;;13.37;4.57;;;;;;;;;;5029781;28;20033;-55
2023/01/06 07:44:12;;;;;;;13.75;4.80;;;;;;;;;;5029628;28;20087;-56
2023/01/06 07:46:37;;;;;;;12.32;4.28;;;;;;;;;;5026558;28;20099;-57
2023/01/06 07:49:02;;;;;;;14.15;5.07;;;;;;;;;;5030222;28;20049;-55
2023/01/06 07:51:28;;;;;;;14.23;4.80;;;;;;;;;;5028751;28;20474;-54
2023/01/06 07:53:53;;;;;;;15.63;5.13;;;;;;;;;;5035821;28;20056;-55
2023/01/06 07:56:18;;;;;;;12.20;4.55;;;;;;;;;;5026289;28;20025;-54
2023/01/06 07:58:43;;;;;;;12.20;4.70;;;;;;;;;;5019451;28;20544;-55
2023/01/06 08:01:08;;;;;;;14.43;4.97;;;;;;;;;;5021145;28;20113;-58
2023/01/06 08:03:34;;;;;;;13.45;4.60;;;;;;;;;;5024414;28;20493;-56
2023/01/06 08:05:59;;;;;;;18.73;5.80;;;;;;;;;;5021784;28;20014;-55
2023/01/06 08:08:24;;;;;;;13.88;5.53;;;;;;;;;;5022394;28;20488;-55
2023/01/06 08:10:49;;;;;;;12.40;4.70;;;;;;;;;;5030246;28;20096;-54
2023/01/06 08:13:14;;;;;;;15.43;5.15;;;;;;;;;;5038905;28;20459;-54
2023/01/06 08:15:40;;;;;;;20.80;5.05;;;;;;;;;;5030431;28;20101;-54
2023/01/06 08:18:05;;;;;;;13.60;5.37;;;;;;;;;;5031312;28;20437;-54
2023/01/06 08:20:32;;;;;;;12.65;4.78;;;;;;;;;;5033296;28;20103;-58
2023/01/06 08:22:57;;;;;;;14.68;5.28;;;;;;;;;;5035109;28;20502;-54
2023/01/06 08:25:23;;;;;;;19.88;5.63;;;;;;;;;;5029629;28;20117;-59
2023/01/06 08:27:48;;;;;;;18.70;5.70;;;;;;;;;;5039052;28;20033;-54
2023/01/06 08:30:15;;;;;;;11.23;4.80;;;;;;;;;;5030888;28;20017;-57
2023/01/06 08:32:40;;;;;;;12.20;4.55;;;;;;;;;;5030835;28;20564;-54
2023/01/06 08:35:05;;;;;;;14.57;5.22;;;;;;;;;;5030460;28;20029;-56
2023/01/06 08:37:30;;;;;;;14.83;5.63;;;;;;;;;;5030771;28;20442;-54
2023/01/06 08:39:56;;;;;;;12.32;4.93;;;;;;;;;;5029415;28;20041;-54
2023/01/06 08:42:21;;;;;;;20.05;7.00;;;;;;;;;;5038771;28;20457;-55
2023/01/06 08:44:46;;;;;;;19.63;5.57;;;;;;;;;;5030200;28;20026;-54
2023/01/06 08:47:11;;;;;;;14.97;6.00;;;;;;;;;;5030170;28;20029;-54
2023/01/06 08:49:36;;;;;;;15.10;5.55;;;;;;;;;;5030480;28;20025;-54
2023/01/06 08:52:02;;;;;;;14.07;5.83;;;;;;;;;;5030916;28;20055;-53
2023/01/06 08:54:28;;;;;;;13.10;5.78;;;;;;;;;;5032240;28;20013;-57
2023/01/06 08:56:53;;;;;;;15.13;6.40;;;;;;;;;;5035214;28;20395;-58
2023/01/06 08:59:18;;;;;;;15.35;5.70;;;;;;;;;;5030692;28;20029;-54
2023/01/06 09:01:43;;;;;;;12.50;5.30;;;;;;;;;;5030898;28;20123;-53
2023/01/06 09:04:09;;;;;;;13.83;5.70;;;;;;;;;;5030492;28;20025;-54
2023/01/06 09:06:35;;;;;;;11.85;4.90;;;;;;;;;;5029459;28;20542;-55
2023/01/06 09:09:01;;;;;;;13.90;5.65;;;;;;;;;;5038548;28;20013;-54
2023/01/06 09:11:26;;;;;;;14.48;5.82;;;;;;;;;;5030461;28;20057;-54
2023/01/06 09:13:51;;;;;;;11.70;4.73;;;;;;;;;;5029973;28;20047;-56
2023/01/06 09:16:17;;;;;;;12.85;5.60;;;;;;;;;;5029857;28;20125;-56
2023/01/06 09:18:47;;;;;;;13.13;4.88;;;;;;;;;;5030264;28;20025;-54
2023/01/06 09:21:12;;;;;;;10.02;4.65;;;;;;;;;;5029862;28;20558;-59
2023/01/06 09:23:37;;;;;;;10.88;4.05;;;;;;;;;;5036931;28;20116;-57
2023/01/06 09:26:02;;;;;;;8.13;3.72;;;;;;;;;;5029587;28;20031;-56
2023/01/06 09:28:28;;;;;;;13.10;4.60;;;;;;;;;;5031319;28;20033;-56
2023/01/06 09:30:53;;;;;;;11.07;4.38;;;;;;;;;;5032571;28;20021;-54
2023/01/06 09:33:18;;;;;;;10.73;4.27;;;;;;;;;;5042783;28;20493;-56
2023/01/06 09:35:44;;;;;;;8.47;3.83;;;;;;;;;;5034325;28;20017;-53
2023/01/06 09:38:09;;;;;;;9.18;3.60;;;;;;;;;;5034423;28;20498;-54
2023/01/06 09:40:55;;;;;;;9.65;3.80;;;;;;;;;;5042530;28;20493;-54
2023/01/06 09:43:23;;;;;;;9.65;3.92;;;;;;;;;;5033168;28;20080;-54
2023/01/06 09:45:51;;;;;;;14.52;4.80;;;;;;;;;;5033894;28;20064;-53
2023/01/06 09:48:18;;;;;;;11.25;4.85;;;;;;;;;;5034514;28;20480;-54
2023/01/06 09:50:45;;;;;;;9.15;4.53;;;;;;;;;;5034144;28;20036;-55
2023/01/06 09:53:12;;;;;;;11.27;4.20;;;;;;;;;;5023726;28;20017;-56
2023/01/06 09:55:40;;;;;;;9.27;4.05;;;;;;;;;;5045854;28;20148;-55
2023/01/06 09:58:16;;;;;;;9.02;3.95;;;;;;;;;;5053320;28;20024;-55
2023/01/06 10:00:48;;;;;;;8.32;4.10;;;;;;;;;;5053585;28;20025;-55
2023/01/06 10:03:13;;;;;;;;;;;;;;;;;;5053689;28;20413;-55
2023/01/06 10:05:43;;;;;;;10.68;4.03;;;;;;;;;;5049564;28;20463;-59
2023/01/06 10:08:20;;;;;;;9.73;4.03;;;;;;;;;;5041278;28;20568;-53
2023/01/06 10:11:04;;;;;;;9.98;4.43;;;;;;;;;;5033343;28;20029;-55
2023/01/06 10:13:37;;;;;;;9.88;4.53;;;;;;;;;;5033745;28;20017;-56
2023/01/06 10:16:02;;;;;;;9.98;4.28;;;;;;;;;;5032772;28;20017;-55
2023/01/06 10:19:03;;;;;;;9.18;4.03;;;;;;;;;;5033095;28;20040;-55
2023/01/06 10:21:49;;;;;;;10.65;4.05;;;;;;;;;;4947802;29;20102;-57
2023/01/06 10:24:17;;;;;;;9.25;4.20;;;;;;;;;;5028068;28;20091;-54
2023/01/06 10:26:43;;;;;;;10.00;4.35;;;;;;;;;;5032590;28;20017;-54
2023/01/06 10:29:12;;;;;;;8.35;4.18;;;;;;;;;;5032784;28;20068;-54
2023/01/06 10:31:38;;;;;;;8.60;3.90;;;;;;;;;;5032840;28;20041;-55
2023/01/06 10:34:10;;;;;;;10.35;4.40;;;;;;;;;;5031993;28;20108;-56
2023/01/06 10:36:41;;;;;;;11.38;4.68;;;;;;;;;;5029414;28;20040;-57
2023/01/06 10:39:12;;;;;;;8.63;4.10;;;;;;;;;;5052498;28;20020;-55
2023/01/06 10:41:42;;;;;;;9.10;4.05;;;;;;;;;;5051479;28;20102;-57
2023/01/06 10:44:10;;;;;;;8.40;3.92;;;;;;;;;;5052474;28;20017;-54
2023/01/06 10:46:35;;;;;;;8.82;4.30;;;;;;;;;;5052076;28;20078;-54
2023/01/06 10:49:01;;;;;;;7.38;3.63;;;;;;;;;;5042232;28;20026;-55
2023/01/06 10:51:34;;;;;;;8.05;4.05;;;;;;;;;;5040709;28;20105;-55
2023/01/06 10:54:20;;;;;;;12.80;3.97;;;;;;;;;;5032028;28;20502;-58
2023/01/06 10:56:49;;;;;;;9.52;4.22;;;;;;;;;;5032030;28;20032;-56
2023/01/06 10:59:14;;;;;;;9.70;4.00;;;;;;;;;;5032234;28;20421;-55
2023/01/06 11:01:53;;;;;;;9.73;4.17;;;;;;;;;;5032140;28;20025;-57
2023/01/06 11:04:20;;;;;;;7.35;3.25;;;;;;;;;;5032771;28;20411;-55
2023/01/06 11:06:45;;;;;;;;;;;;;;;;;;5038850;28;20070;-54
2023/01/06 11:09:22;;;;;;;5.53;2.45;;;;;;;;;;5032212;28;20003;-56
2023/01/06 11:11:48;;;;;;;8.48;2.50;;;;;;;;;;5032045;28;20033;-54
2023/01/06 11:14:15;;;;;;;7.38;2.70;;;;;;;;;;5031813;28;20017;-55
2023/01/06 11:16:41;;;;;;;4.40;1.88;;;;;;;;;;5030759;28;20467;-57
2023/01/06 11:19:07;;;;;;;2.77;0.97;;;;;;;;;;5039863;28;20024;-54
2023/01/06 11:21:36;;;;;;;3.15;0.90;;;;;;;;;;5031939;28;20108;-57
2023/01/06 11:24:08;;;;;;;2.72;0.73;;;;;;;;;;5031641;28;20105;-55
2023/01/06 11:26:42;;;;;;;2.88;0.60;;;;;;;;;;5030557;28;20454;-58
2023/01/06 11:29:16;;;;;;;2.45;0.60;;;;;;;;;;5039934;28;20204;-55
2023/01/06 11:31:45;;;;;;;1.65;0.50;;;;;;;;;;5030141;28;20017;-56
2023/01/06 11:34:18;;;;;;;0.88;0.43;;;;;;;;;;5039152;28;20409;-55
2023/01/06 11:36:45;;;;;;;3.05;0.70;;;;;;;;;;5031836;28;20033;-56
2023/01/06 11:39:16;;;;;;;1.38;0.47;;;;;;;;;;5032048;28;20033;-55
2023/01/06 11:41:46;;;;;;;2.00;0.50;;;;;;;;;;5031897;28;20112;-56
2023/01/06 11:44:11;;;;;;;3.22;0.80;;;;;;;;;;5031332;28;20018;-58
2023/01/06 11:46:37;;;;;;;2.47;0.63;;;;;;;;;;5031633;28;20028;-55
2023/01/06 11:49:05;;;;;;;3.05;0.63;;;;;;;;;;5030878;28;20120;-55
2023/01/06 11:51:32;;;;;;;2.58;0.63;;;;;;;;;;5011787;28;20106;-56
2023/01/06 11:53:57;;;;;;;1.38;0.47;;;;;;;;;;5011637;28;20021;-55
2023/01/06 11:56:23;;;;;;;1.35;0.47;;;;;;;;;;5017024;28;20066;-56
2023/01/06 11:58:57;;;;;;;2.15;0.40;;;;;;;;;;5039720;28;20039;-56
2023/01/06 12:01:40;;;;;;;1.45;0.50;;;;;;;;;;5039494;28;20033;-59
2023/01/06 12:04:18;;;;;;;2.58;0.52;;;;;;;;;;5031391;28;20025;-56
2023/01/06 12:06:44;;;;;;;1.33;0.50;;;;;;;;;;5031584;28;20428;-56
2023/01/06 12:09:28;;;;;;;1.42;0.50;;;;;;;;;;5031216;28;20128;-58
2023/01/06 12:11:55;;;;;;;0.88;0.40;;;;;;;;;;5036832;28;20073;-55
2023/01/06 12:14:24;;;;;;;3.40;0.82;;;;;;;;;;5033022;28;20021;-55
2023/01/06 12:16:56;;;;;;;1.50;0.50;;;;;;;;;;5032039;28;20098;-53
2023/01/06 12:19:25;;;;;;;2.10;0.50;;;;;;;;;;5031777;28;20026;-54
2023/01/06 12:21:50;;;;;;;1.42;0.40;;;;;;;;;;5031656;28;20379;-58
2023/01/06 12:24:16;;;;;;;1.90;0.60;;;;;;;;;;5030946;28;20062;-54
2023/01/06 12:26:42;;;;;;;2.97;0.60;;;;;;;;;;5030242;28;20071;-53
2023/01/06 12:29:08;;;;;;;1.63;0.50;;;;;;;;;;5039215;28;20013;-54
2023/01/06 12:31:35;;;;;;;1.67;0.60;;;;;;;;;;5050925;28;20021;-58
2023/01/06 12:34:09;;;;;;;2.20;0.65;;;;;;;;;;5050851;28;20023;-54
2023/01/06 12:36:38;;;;;;;1.20;0.50;;;;;;;;;;5050708;28;20020;-53
2023/01/06 12:39:09;;;;;;;2.00;0.50;;;;;;;;;;5050558;28;20021;-59
2023/01/06 12:41:37;;;;;;;1.40;0.50;;;;;;;;;;5039850;28;20060;-54
2023/01/06 12:44:15;;;;;;;2.13;0.60;;;;;;;;;;5038658;28;20032;-53
2023/01/06 12:46:54;;;;;;;2.08;0.73;;;;;;;;;;5030671;28;20021;-57
2023/01/06 12:49:34;;;;;;;3.15;0.60;;;;;;;;;;5030861;28;20109;-55
2023/01/06 12:52:02;;;;;;;2.55;0.80;;;;;;;;;;5030713;28;20037;-54
2023/01/06 12:54:28;;;;;;;1.92;0.60;;;;;;;;;;5030318;28;20028;-55
2023/01/06 12:56:54;;;;;;;2.45;0.80;;;;;;;;;;5030147;28;20474;-55
2023/01/06 12:59:39;;;;;;;3.25;0.70;;;;;;;;;;5030435;28;20700;-58
2023/01/06 13:02:18;;;;;;;1.48;0.60;;;;;;;;;;5034077;28;20037;-54
2023/01/06 13:04:43;;;;;;;3.42;0.80;;;;;;;;;;5034057;28;20587;-55
2023/01/06 13:07:10;;;;;;;2.47;0.80;;;;;;;;;;5034430;28;20017;-55
2023/01/06 13:09:35;;;;;;;2.70;0.70;;;;;;;;;;5034451;28;20458;-54
2023/01/06 13:12:03;;;;;;;2.15;0.70;;;;;;;;;;5034098;28;20029;-58
2023/01/06 13:14:34;;;;;;;2.28;0.70;;;;;;;;;;5042610;28;20418;-58
2023/01/06 13:17:02;;;;;;;1.52;0.50;;;;;;;;;;5034345;28;20435;-56
2023/01/06 13:19:27;;;;;;;2.15;0.60;;;;;;;;;;5034589;28;20029;-55
2023/01/06 13:21:53;;;;;;;2.05;0.57;;;;;;;;;;5034027;28;20116;-56
2023/01/06 13:24:38;;;;;;;2.72;0.63;;;;;;;;;;5034298;28;20200;-55
2023/01/06 13:27:14;;;;;;;2.28;0.70;;;;;;;;;;5034362;28;20014;-54
2023/01/06 13:29:56;;;;;;;1.67;0.60;;;;;;;;;;5031629;28;20025;-54
2023/01/06 13:32:27;;;;;;;2.65;0.75;;;;;;;;;;5042451;28;20060;-53
2023/01/06 13:34:59;;;;;;;1.90;0.50;;;;;;;;;;5034073;28;20025;-59
2023/01/06 13:37:33;;;;;;;2.40;0.40;;;;;;;;;;5034090;28;20022;-53
2023/01/06 13:40:01;;;;;;;3.47;0.50;;;;;;;;;;5034260;28;20028;-54
2023/01/06 13:42:38;;;;;;;1.67;0.47;;;;;;;;;;5033957;28;20029;-54
2023/01/06 13:45:06;;;;;;;3.28;0.50;;;;;;;;;;5031263;28;20076;-56
2023/01/06 13:47:31;;;;;;;2.13;0.60;;;;;;;;;;5028916;28;20370;-56
2023/01/06 13:49:57;;;;;;;1.55;0.40;;;;;;;;;;5037451;28;20063;-53
2023/01/06 13:52:23;;;;;;;1.77;0.50;;;;;;;;;;5042899;28;20433;-57
2023/01/06 13:54:49;;;;;;;1.60;0.60;;;;;;;;;;5035582;28;20037;-55
2023/01/06 13:57:21;;;;;;;3.10;0.60;;;;;;;;;;5029595;28;20052;-55
2023/01/06 13:59:50;;;;;;;4.13;0.60;;;;;;;;;;5033393;28;20677;-54
2023/01/06 14:02:33;;;;;;;2.78;0.63;;;;;;;;;;5033785;28;20033;-55
2023/01/06 14:05:04;;;;;;;3.42;0.60;;;;;;;;;;5033836;28;20017;-55
2023/01/06 14:07:36;;;;;;;1.88;0.60;;;;;;;;;;5033585;28;20364;-58
2023/01/06 14:10:03;;;;;;;1.55;0.50;;;;;;;;;;5033484;28;20033;-58
2023/01/06 14:12:29;;;;;;;3.03;0.50;;;;;;;;;;5033386;28;20753;-54
2023/01/06 14:14:56;;;;;;;1.77;0.60;;;;;;;;;;5032198;28;20114;-54
2023/01/06 14:17:26;;;;;;;1.65;0.60;;;;;;;;;;5048526;28;20462;-57
2023/01/06 14:19:52;;;;;;;2.13;0.60;;;;;;;;;;5053072;28;20409;-54
2023/01/06 14:22:19;;;;;;;3.65;0.70;;;;;;;;;;5042489;28;20483;-54
2023/01/06 14:25:04;;;;;;;2.80;0.60;;;;;;;;;;5034055;28;20560;-54
2023/01/06 14:27:44;;;;;;;1.73;0.43;;;;;;;;;;5032399;28;20026;-57
2023/01/06 14:30:25;;;;;;;1.23;0.47;;;;;;;;;;5013014;28;20018;-55
2023/01/06 14:32:50;;;;;;;1.17;0.50;;;;;;;;;;5017071;28;20021;-55
2023/01/06 14:35:21;;;;;;;1.27;0.30;;;;;;;;;;5032467;28;20040;-57
2023/01/06 14:37:50;;;;;;;2.08;0.60;;;;;;;;;;5032623;28;20021;-54
2023/01/06 14:40:18;;;;;;;2.20;0.60;;;;;;;;;;5037162;28;20125;-58
2023/01/06 14:42:44;;;;;;;2.30;0.40;;;;;;;;;;5048093;28;20029;-57
2023/01/06 14:45:27;;;;;;;1.48;0.45;;;;;;;;;;5044056;28;20063;-54
2023/01/06 14:48:08;;;;;;;5.00;0.70;;;;;;;;;;5035525;28;20025;-63
2023/01/06 14:50:44;;;;;;;3.10;0.57;;;;;;;;;;5026078;28;20028;-55